sensor_id;sensor_type;location;lat;lon;timestamp;pressure;altitude;pressure_sealevel;temperature;humidity
80682;BME280;70045;40.200;44.582;2023-05-29T00:01:06;86112.09;;;18.79;45.03
80682;BME280;70045;40.200;44.582;2023-05-29T00:03:31;86117.63;;;18.81;45.27
80682;BME280;70045;40.200;44.582;2023-05-29T00:06:02;86132.09;;;18.76;45.17
80682;BME280;70045;40.200;44.582;2023-05-29T00:08:28;86116.97;;;18.71;45.23
80682;BME280;70045;40.200;44.582;2023-05-29T00:10:53;86118.25;;;18.76;45.44
80682;BME280;70045;40.200;44.582;2023-05-29T00:13:19;86111.28;;;18.73;45.71
80682;BME280;70045;40.200;44.582;2023-05-29T00:15:44;86121.59;;;18.76;45.48
80682;BME280;70045;40.200;44.582;2023-05-29T00:18:14;86123.25;;;18.74;45.96
80682;BME280;70045;40.200;44.582;2023-05-29T00:20:40;86132.22;;;18.82;45.71
80682;BME280;70045;40.200;44.582;2023-05-29T00:23:05;86127.06;;;18.88;45.51
80682;BME280;70045;40.200;44.582;2023-05-29T00:25:31;86129.22;;;18.89;45.23
80682;BME280;70045;40.200;44.582;2023-05-29T00:27:56;86132.66;;;18.95;45.21
80682;BME280;70045;40.200;44.582;2023-05-29T00:30:25;86131.47;;;18.96;45.30
80682;BME280;70045;40.200;44.582;2023-05-29T00:32:50;86146.59;;;19.02;44.88
80682;BME280;70045;40.200;44.582;2023-05-29T00:35:16;86147.13;;;19.06;45.44
80682;BME280;70045;40.200;44.582;2023-05-29T00:37:41;86155.09;;;19.11;45.02
80682;BME280;70045;40.200;44.582;2023-05-29T00:40:07;86155.63;;;19.15;45.14
80682;BME280;70045;40.200;44.582;2023-05-29T00:42:35;86150.38;;;19.15;45.52
80682;BME280;70045;40.200;44.582;2023-05-29T00:45:01;86154.53;;;19.22;44.94
80682;BME280;70045;40.200;44.582;2023-05-29T00:47:26;86154.16;;;19.29;44.82
80682;BME280;70045;40.200;44.582;2023-05-29T00:49:51;86156.78;;;19.29;44.65
80682;BME280;70045;40.200;44.582;2023-05-29T00:52:19;86166.09;;;19.30;44.65
80682;BME280;70045;40.200;44.582;2023-05-29T00:54:47;86165.00;;;19.37;44.05
80682;BME280;70045;40.200;44.582;2023-05-29T00:57:14;86160.81;;;19.45;43.92
80682;BME280;70045;40.200;44.582;2023-05-29T00:59:41;86158.25;;;19.51;43.69
80682;BME280;70045;40.200;44.582;2023-05-29T01:02:07;86164.69;;;19.50;44.29
80682;BME280;70045;40.200;44.582;2023-05-29T01:04:34;86166.41;;;19.53;44.65
80682;BME280;70045;40.200;44.582;2023-05-29T01:07:02;86168.75;;;19.51;45.16
80682;BME280;70045;40.200;44.582;2023-05-29T01:09:28;86155.28;;;19.43;45.57
80682;BME280;70045;40.200;44.582;2023-05-29T01:29:08;86164.16;;;19.46;44.85
80682;BME280;70045;40.200;44.582;2023-05-29T01:31:36;86170.88;;;19.47;44.75
80682;BME280;70045;40.200;44.582;2023-05-29T01:34:02;86170.59;;;19.45;44.60
80682;BME280;70045;40.200;44.582;2023-05-29T01:36:27;86178.38;;;19.54;44.24
80682;BME280;70045;40.200;44.582;2023-05-29T01:38:55;86170.34;;;19.63;43.98
80682;BME280;70045;40.200;44.582;2023-05-29T01:41:24;86175.97;;;19.71;44.80
80682;BME280;70045;40.200;44.582;2023-05-29T01:43:51;86170.91;;;19.67;44.52
80682;BME280;70045;40.200;44.582;2023-05-29T01:46:18;86185.03;;;19.70;44.52
80682;BME280;70045;40.200;44.582;2023-05-29T01:48:45;86204.72;;;19.74;44.29
80682;BME280;70045;40.200;44.582;2023-05-29T01:51:11;86195.34;;;19.73;44.45
80682;BME280;70045;40.200;44.582;2023-05-29T01:53:41;86193.16;;;19.72;45.43
80682;BME280;70045;40.200;44.582;2023-05-29T01:56:07;86192.19;;;19.69;45.13
80682;BME280;70045;40.200;44.582;2023-05-29T01:58:34;86190.47;;;19.66;45.04
80682;BME280;70045;40.200;44.582;2023-05-29T02:01:01;86174.44;;;19.64;45.33
80682;BME280;70045;40.200;44.582;2023-05-29T02:03:27;86165.63;;;19.67;45.15
80682;BME280;70045;40.200;44.582;2023-05-29T02:05:57;86171.69;;;19.73;44.83
80682;BME280;70045;40.200;44.582;2023-05-29T02:08:22;86165.28;;;19.74;44.33
80682;BME280;70045;40.200;44.582;2023-05-29T02:10:48;86168.63;;;19.75;44.40
80682;BME280;70045;40.200;44.582;2023-05-29T02:13:13;86160.00;;;19.74;44.33
80682;BME280;70045;40.200;44.582;2023-05-29T02:15:38;86168.69;;;19.81;44.38
80682;BME280;70045;40.200;44.582;2023-05-29T02:18:11;86168.03;;;19.86;44.63
80682;BME280;70045;40.200;44.582;2023-05-29T02:20:36;86173.28;;;19.86;44.24
80682;BME280;70045;40.200;44.582;2023-05-29T02:23:01;86173.56;;;19.88;44.06
80682;BME280;70045;40.200;44.582;2023-05-29T02:25:27;86176.72;;;19.92;44.08
80682;BME280;70045;40.200;44.582;2023-05-29T02:27:52;86170.78;;;19.97;44.33
80682;BME280;70045;40.200;44.582;2023-05-29T02:30:20;86171.06;;;19.99;44.28
80682;BME280;70045;40.200;44.582;2023-05-29T02:32:46;86163.88;;;20.00;44.40
80682;BME280;70045;40.200;44.582;2023-05-29T02:35:11;86169.34;;;19.96;44.88
80682;BME280;70045;40.200;44.582;2023-05-29T02:37:37;86172.97;;;19.99;44.87
80682;BME280;70045;40.200;44.582;2023-05-29T02:40:02;86174.59;;;19.96;45.48
80682;BME280;70045;40.200;44.582;2023-05-29T02:42:30;86175.59;;;19.99;45.12
80682;BME280;70045;40.200;44.582;2023-05-29T02:44:56;86179.88;;;19.96;44.73
80682;BME280;70045;40.200;44.582;2023-05-29T02:47:21;86193.16;;;19.87;44.48
80682;BME280;70045;40.200;44.582;2023-05-29T02:49:46;86197.50;;;19.90;44.54
80682;BME280;70045;40.200;44.582;2023-05-29T02:52:12;86200.91;;;19.96;44.24
80682;BME280;70045;40.200;44.582;2023-05-29T02:54:40;86203.81;;;19.98;42.58
80682;BME280;70045;40.200;44.582;2023-05-29T02:57:05;86216.50;;;20.00;43.04
80682;BME280;70045;40.200;44.582;2023-05-29T02:59:31;86216.31;;;20.03;43.07
80682;BME280;70045;40.200;44.582;2023-05-29T03:01:56;86223.00;;;19.84;45.53
80682;BME280;70045;40.200;44.582;2023-05-29T03:04:21;86221.66;;;19.73;45.74
80682;BME280;70045;40.200;44.582;2023-05-29T03:06:49;86218.88;;;19.62;46.19
80682;BME280;70045;40.200;44.582;2023-05-29T03:09:15;86217.63;;;19.57;46.45
80682;BME280;70045;40.200;44.582;2023-05-29T03:11:40;86209.16;;;19.68;46.19
80682;BME280;70045;40.200;44.582;2023-05-29T03:14:06;86217.75;;;19.84;46.80
80682;BME280;70045;40.200;44.582;2023-05-29T03:16:31;86214.16;;;20.02;46.49
80682;BME280;70045;40.200;44.582;2023-05-29T03:18:59;86209.06;;;20.19;47.06
80682;BME280;70045;40.200;44.582;2023-05-29T03:21:24;86209.47;;;20.32;46.24
80682;BME280;70045;40.200;44.582;2023-05-29T03:23:50;86210.78;;;20.42;45.91
80682;BME280;70045;40.200;44.582;2023-05-29T03:26:15;86211.41;;;20.58;44.86
80682;BME280;70045;40.200;44.582;2023-05-29T03:28:40;86212.56;;;20.77;44.19
80682;BME280;70045;40.200;44.582;2023-05-29T03:31:09;86219.72;;;20.97;43.47
80682;BME280;70045;40.200;44.582;2023-05-29T03:33:35;86227.03;;;21.14;43.27
80682;BME280;70045;40.200;44.582;2023-05-29T03:36:01;86223.84;;;21.36;42.97
80682;BME280;70045;40.200;44.582;2023-05-29T03:38:26;86232.13;;;21.49;42.27
80682;BME280;70045;40.200;44.582;2023-05-29T03:40:52;86238.19;;;21.61;42.25
80682;BME280;70045;40.200;44.582;2023-05-29T03:43:20;86235.59;;;21.67;41.93
80682;BME280;70045;40.200;44.582;2023-05-29T03:45:45;86247.69;;;21.79;41.63
80682;BME280;70045;40.200;44.582;2023-05-29T03:48:11;86248.88;;;21.84;41.75
80682;BME280;70045;40.200;44.582;2023-05-29T03:50:36;86254.22;;;21.89;41.64
80682;BME280;70045;40.200;44.582;2023-05-29T03:53:01;86241.28;;;21.97;40.77
80682;BME280;70045;40.200;44.582;2023-05-29T03:55:31;86243.50;;;22.10;40.64
80682;BME280;70045;40.200;44.582;2023-05-29T03:57:57;86258.19;;;22.16;38.88
80682;BME280;70045;40.200;44.582;2023-05-29T04:00:22;86257.22;;;22.14;38.90
80682;BME280;70045;40.200;44.582;2023-05-29T04:02:47;86250.75;;;22.15;40.34
80682;BME280;70045;40.200;44.582;2023-05-29T04:05:13;86242.09;;;22.09;40.18
80682;BME280;70045;40.200;44.582;2023-05-29T04:07:41;86249.72;;;22.01;39.74
80682;BME280;70045;40.200;44.582;2023-05-29T04:10:07;86253.53;;;21.94;39.91
80682;BME280;70045;40.200;44.582;2023-05-29T04:12:33;86252.34;;;22.01;40.36
80682;BME280;70045;40.200;44.582;2023-05-29T04:14:58;86255.97;;;22.04;40.54
80682;BME280;70045;40.200;44.582;2023-05-29T04:17:26;86260.81;;;22.11;40.46
80682;BME280;70045;40.200;44.582;2023-05-29T04:19:54;86255.09;;;22.18;40.50
80682;BME280;70045;40.200;44.582;2023-05-29T04:22:20;86249.09;;;22.23;40.67
80682;BME280;70045;40.200;44.582;2023-05-29T04:24:46;86255.19;;;22.29;40.96
80682;BME280;70045;40.200;44.582;2023-05-29T04:27:11;86251.31;;;22.30;40.94
80682;BME280;70045;40.200;44.582;2023-05-29T04:29:37;86259.28;;;22.36;40.42
80682;BME280;70045;40.200;44.582;2023-05-29T04:32:05;86260.75;;;22.43;40.52
80682;BME280;70045;40.200;44.582;2023-05-29T04:34:30;86253.56;;;22.49;39.14
80682;BME280;70045;40.200;44.582;2023-05-29T04:36:57;86258.88;;;22.54;40.05
80682;BME280;70045;40.200;44.582;2023-05-29T04:39:22;86261.97;;;22.53;40.63
80682;BME280;70045;40.200;44.582;2023-05-29T04:41:48;86252.78;;;22.31;42.80
80682;BME280;70045;40.200;44.582;2023-05-29T04:44:16;86267.84;;;22.25;42.60
80682;BME280;70045;40.200;44.582;2023-05-29T04:46:42;86262.25;;;22.12;43.38
80682;BME280;70045;40.200;44.582;2023-05-29T04:49:07;86262.25;;;22.12;42.75
80682;BME280;70045;40.200;44.582;2023-05-29T04:51:33;86268.03;;;22.16;43.73
80682;BME280;70045;40.200;44.582;2023-05-29T04:53:58;86264.94;;;22.23;42.99
80682;BME280;70045;40.200;44.582;2023-05-29T04:56:27;86268.63;;;22.31;42.38
80682;BME280;70045;40.200;44.582;2023-05-29T04:58:52;86278.03;;;22.44;42.28
80682;BME280;70045;40.200;44.582;2023-05-29T05:01:18;86272.50;;;22.42;41.87
80682;BME280;70045;40.200;44.582;2023-05-29T05:03:43;86274.47;;;22.47;42.42
80682;BME280;70045;40.200;44.582;2023-05-29T05:06:09;86264.84;;;22.44;42.83
80682;BME280;70045;40.200;44.582;2023-05-29T05:08:37;86286.75;;;22.55;41.19
80682;BME280;70045;40.200;44.582;2023-05-29T05:11:03;86278.81;;;22.50;42.73
80682;BME280;70045;40.200;44.582;2023-05-29T05:13:29;86282.88;;;22.51;41.73
80682;BME280;70045;40.200;44.582;2023-05-29T05:15:54;86283.91;;;22.70;40.38
80682;BME280;70045;40.200;44.582;2023-05-29T05:18:20;86272.06;;;22.49;41.08
80682;BME280;70045;40.200;44.582;2023-05-29T05:20:48;86304.56;;;22.66;41.71
80682;BME280;70045;40.200;44.582;2023-05-29T05:23:13;86315.81;;;22.61;41.08
80682;BME280;70045;40.200;44.582;2023-05-29T05:25:39;86314.56;;;22.51;41.22
80682;BME280;70045;40.200;44.582;2023-05-29T05:28:05;86315.22;;;22.34;41.63
80682;BME280;70045;40.200;44.582;2023-05-29T05:30:30;86317.03;;;22.17;42.10
80682;BME280;70045;40.200;44.582;2023-05-29T05:32:58;86318.53;;;21.92;43.51
80682;BME280;70045;40.200;44.582;2023-05-29T05:35:24;86310.66;;;21.66;43.70
80682;BME280;70045;40.200;44.582;2023-05-29T05:37:49;86312.78;;;21.61;44.08
80682;BME280;70045;40.200;44.582;2023-05-29T05:40:15;86329.75;;;21.55;45.40
80682;BME280;70045;40.200;44.582;2023-05-29T05:42:40;86317.31;;;21.35;47.71
80682;BME280;70045;40.200;44.582;2023-05-29T05:45:09;86319.63;;;21.21;50.30
80682;BME280;70045;40.200;44.582;2023-05-29T05:47:35;86313.28;;;21.13;49.21
80682;BME280;70045;40.200;44.582;2023-05-29T05:50:00;86323.63;;;21.17;49.16
80682;BME280;70045;40.200;44.582;2023-05-29T05:52:25;86325.03;;;21.12;50.05
80682;BME280;70045;40.200;44.582;2023-05-29T05:54:51;86329.53;;;21.06;50.39
80682;BME280;70045;40.200;44.582;2023-05-29T05:57:19;86330.03;;;21.10;51.67
80682;BME280;70045;40.200;44.582;2023-05-29T05:59:45;86341.38;;;21.16;50.82
80682;BME280;70045;40.200;44.582;2023-05-29T06:02:11;86338.16;;;21.06;52.70
80682;BME280;70045;40.200;44.582;2023-05-29T06:04:36;86343.13;;;20.99;50.93
80682;BME280;70045;40.200;44.582;2023-05-29T06:07:02;86342.81;;;20.97;51.17
80682;BME280;70045;40.200;44.582;2023-05-29T06:09:30;86355.28;;;20.96;51.28
80682;BME280;70045;40.200;44.582;2023-05-29T06:11:55;86353.25;;;20.85;51.58
80682;BME280;70045;40.200;44.582;2023-05-29T06:14:21;86352.34;;;20.88;51.99
80682;BME280;70045;40.200;44.582;2023-05-29T06:16:46;86359.03;;;20.90;52.55
80682;BME280;70045;40.200;44.582;2023-05-29T06:19:11;86356.41;;;21.10;51.78
80682;BME280;70045;40.200;44.582;2023-05-29T06:21:39;86355.16;;;21.32;52.69
80682;BME280;70045;40.200;44.582;2023-05-29T06:24:05;86360.16;;;21.50;50.75
80682;BME280;70045;40.200;44.582;2023-05-29T06:26:30;86357.88;;;21.63;50.64
80682;BME280;70045;40.200;44.582;2023-05-29T06:28:56;86366.41;;;21.79;50.12
80682;BME280;70045;40.200;44.582;2023-05-29T06:31:21;86380.69;;;21.93;49.35
80682;BME280;70045;40.200;44.582;2023-05-29T06:33:49;86373.94;;;21.92;49.00
80682;BME280;70045;40.200;44.582;2023-05-29T06:36:15;86387.66;;;21.96;50.68
80682;BME280;70045;40.200;44.582;2023-05-29T06:38:48;86380.00;;;21.98;50.20
80682;BME280;70045;40.200;44.582;2023-05-29T06:41:13;86378.13;;;22.04;50.19
80682;BME280;70045;40.200;44.582;2023-05-29T06:43:38;86384.56;;;22.29;49.75
80682;BME280;70045;40.200;44.582;2023-05-29T06:46:08;86391.97;;;22.63;48.35
80682;BME280;70045;40.200;44.582;2023-05-29T06:48:34;86390.41;;;22.88;47.63
80682;BME280;70045;40.200;44.582;2023-05-29T06:51:00;86391.50;;;23.07;46.92
80682;BME280;70045;40.200;44.582;2023-05-29T06:53:25;86391.94;;;23.00;46.47
80682;BME280;70045;40.200;44.582;2023-05-29T06:55:52;86401.50;;;22.92;45.82
80682;BME280;70045;40.200;44.582;2023-05-29T06:58:21;86393.59;;;22.98;44.99
80682;BME280;70045;40.200;44.582;2023-05-29T07:00:46;86403.44;;;22.97;45.09
80682;BME280;70045;40.200;44.582;2023-05-29T07:03:11;86405.63;;;22.99;45.64
80682;BME280;70045;40.200;44.582;2023-05-29T07:05:37;86403.81;;;23.16;45.34
80682;BME280;70045;40.200;44.582;2023-05-29T07:08:02;86399.84;;;23.55;43.48
80682;BME280;70045;40.200;44.582;2023-05-29T07:10:30;86402.25;;;23.64;42.59
80682;BME280;70045;40.200;44.582;2023-05-29T07:12:56;86405.66;;;23.70;42.06
80682;BME280;70045;40.200;44.582;2023-05-29T07:15:21;86409.31;;;23.90;41.28
80682;BME280;70045;40.200;44.582;2023-05-29T07:17:46;86408.59;;;24.06;40.30
80682;BME280;70045;40.200;44.582;2023-05-29T07:20:12;86413.88;;;24.00;40.37
80682;BME280;70045;40.200;44.582;2023-05-29T07:22:40;86407.63;;;24.32;39.80
80682;BME280;70045;40.200;44.582;2023-05-29T07:25:06;86408.13;;;24.47;39.64
80682;BME280;70045;40.200;44.582;2023-05-29T07:27:31;86407.19;;;24.67;38.92
80682;BME280;70045;40.200;44.582;2023-05-29T07:29:56;86415.13;;;24.44;37.61
80682;BME280;70045;40.200;44.582;2023-05-29T07:32:22;86415.84;;;24.56;38.85
80682;BME280;70045;40.200;44.582;2023-05-29T07:34:50;86417.00;;;24.89;38.56
80682;BME280;70045;40.200;44.582;2023-05-29T07:37:15;86412.94;;;24.77;38.77
80682;BME280;70045;40.200;44.582;2023-05-29T07:39:45;86415.09;;;24.39;38.36
80682;BME280;70045;40.200;44.582;2023-05-29T07:42:10;86434.63;;;24.30;39.89
80682;BME280;70045;40.200;44.582;2023-05-29T07:44:35;86429.81;;;24.17;38.60
80682;BME280;70045;40.200;44.582;2023-05-29T07:47:04;86429.75;;;23.83;39.06
80682;BME280;70045;40.200;44.582;2023-05-29T07:49:29;86432.53;;;23.52;39.39
80682;BME280;70045;40.200;44.582;2023-05-29T07:51:55;86432.97;;;23.39;39.29
80682;BME280;70045;40.200;44.582;2023-05-29T07:54:21;86439.09;;;23.79;39.06
80682;BME280;70045;40.200;44.582;2023-05-29T07:56:47;86436.06;;;24.03;39.04
80682;BME280;70045;40.200;44.582;2023-05-29T07:59:15;86438.69;;;24.20;38.60
80682;BME280;70045;40.200;44.582;2023-05-29T08:01:41;86426.38;;;23.88;38.71
80682;BME280;70045;40.200;44.582;2023-05-29T08:04:06;86426.34;;;23.77;39.07
80682;BME280;70045;40.200;44.582;2023-05-29T08:06:32;86408.06;;;23.79;39.08
80682;BME280;70045;40.200;44.582;2023-05-29T08:08:57;86413.78;;;23.61;38.26
80682;BME280;70045;40.200;44.582;2023-05-29T08:11:25;86413.72;;;23.38;37.92
80682;BME280;70045;40.200;44.582;2023-05-29T08:13:51;86409.41;;;23.35;37.95
80682;BME280;70045;40.200;44.582;2023-05-29T08:16:16;86415.56;;;23.09;38.50
80682;BME280;70045;40.200;44.582;2023-05-29T08:18:42;86416.56;;;22.80;38.45
80682;BME280;70045;40.200;44.582;2023-05-29T08:21:07;86414.59;;;22.69;39.09
80682;BME280;70045;40.200;44.582;2023-05-29T08:23:35;86414.28;;;22.99;38.60
80682;BME280;70045;40.200;44.582;2023-05-29T08:26:02;86396.53;;;23.05;39.02
80682;BME280;70045;40.200;44.582;2023-05-29T08:28:31;86402.13;;;23.19;38.90
80682;BME280;70045;40.200;44.582;2023-05-29T08:30:56;86403.47;;;23.63;38.30
80682;BME280;70045;40.200;44.582;2023-05-29T08:33:22;86391.97;;;23.88;37.75
80682;BME280;70045;40.200;44.582;2023-05-29T08:35:50;86395.09;;;23.81;36.27
80682;BME280;70045;40.200;44.582;2023-05-29T08:38:16;86395.81;;;23.82;36.51
80682;BME280;70045;40.200;44.582;2023-05-29T08:40:41;86386.22;;;24.24;35.75
80682;BME280;70045;40.200;44.582;2023-05-29T08:43:15;86374.41;;;24.59;34.03
80682;BME280;70045;40.200;44.582;2023-05-29T08:45:44;86385.69;;;24.82;34.79
80682;BME280;70045;40.200;44.582;2023-05-29T08:48:14;86379.13;;;24.94;35.31
80682;BME280;70045;40.200;44.582;2023-05-29T08:50:46;86381.84;;;24.77;35.53
80682;BME280;70045;40.200;44.582;2023-05-29T08:53:13;86363.81;;;24.59;36.37
80682;BME280;70045;40.200;44.582;2023-05-29T08:55:38;86367.91;;;24.60;36.28
80682;BME280;70045;40.200;44.582;2023-05-29T08:58:05;86375.34;;;24.61;34.03
80682;BME280;70045;40.200;44.582;2023-05-29T09:00:34;86372.91;;;24.92;33.24
80682;BME280;70045;40.200;44.582;2023-05-29T09:02:59;86363.41;;;25.13;34.72
80682;BME280;70045;40.200;44.582;2023-05-29T09:05:25;86355.19;;;25.23;33.91
80682;BME280;70045;40.200;44.582;2023-05-29T09:07:51;86342.22;;;25.66;32.89
80682;BME280;70045;40.200;44.582;2023-05-29T09:10:17;86351.25;;;26.24;32.25
80682;BME280;70045;40.200;44.582;2023-05-29T09:12:46;86341.47;;;26.68;31.09
80682;BME280;70045;40.200;44.582;2023-05-29T09:15:21;86348.53;;;27.34;29.48
80682;BME280;70045;40.200;44.582;2023-05-29T09:17:54;86348.47;;;27.96;28.81
80682;BME280;70045;40.200;44.582;2023-05-29T09:20:21;86345.03;;;28.34;27.57
80682;BME280;70045;40.200;44.582;2023-05-29T09:22:56;86335.19;;;28.88;27.07
80682;BME280;70045;40.200;44.582;2023-05-29T09:25:23;86333.88;;;29.48;25.11
80682;BME280;70045;40.200;44.582;2023-05-29T09:28:08;86330.03;;;29.83;24.77
80682;BME280;70045;40.200;44.582;2023-05-29T09:30:44;86332.97;;;30.28;23.45
80682;BME280;70045;40.200;44.582;2023-05-29T09:33:15;86316.16;;;30.90;23.22
80682;BME280;70045;40.200;44.582;2023-05-29T09:35:45;86318.41;;;31.65;25.43
80682;BME280;70045;40.200;44.582;2023-05-29T09:38:16;86319.47;;;32.14;22.54
80682;BME280;70045;40.200;44.582;2023-05-29T09:40:42;86317.38;;;32.51;21.07
80682;BME280;70045;40.200;44.582;2023-05-29T09:43:15;86312.22;;;32.99;21.03
80682;BME280;70045;40.200;44.582;2023-05-29T09:45:45;86309.16;;;33.26;20.89
80682;BME280;70045;40.200;44.582;2023-05-29T09:48:15;86313.06;;;33.40;19.58
80682;BME280;70045;40.200;44.582;2023-05-29T09:50:40;86303.78;;;32.95;20.54
80682;BME280;70045;40.200;44.582;2023-05-29T09:53:20;86309.16;;;32.95;22.83
80682;BME280;70045;40.200;44.582;2023-05-29T09:55:49;86294.44;;;33.34;20.74
80682;BME280;70045;40.200;44.582;2023-05-29T09:58:15;86298.47;;;33.74;22.00
80682;BME280;70045;40.200;44.582;2023-05-29T10:00:41;86291.09;;;33.82;22.44
80682;BME280;70045;40.200;44.582;2023-05-29T10:03:07;86291.03;;;33.98;20.83
80682;BME280;70045;40.200;44.582;2023-05-29T10:05:32;86291.50;;;34.44;21.95
80682;BME280;70045;40.200;44.582;2023-05-29T10:08:01;86286.22;;;34.54;19.77
80682;BME280;70045;40.200;44.582;2023-05-29T10:10:29;86290.38;;;34.80;20.25
80682;BME280;70045;40.200;44.582;2023-05-29T10:12:55;86278.09;;;35.12;19.08
80682;BME280;70045;40.200;44.582;2023-05-29T10:15:23;86287.06;;;35.50;18.95
80682;BME280;70045;40.200;44.582;2023-05-29T10:18:25;86281.69;;;35.67;18.50
80682;BME280;70045;40.200;44.582;2023-05-29T10:20:52;86276.44;;;35.34;19.05
80682;BME280;70045;40.200;44.582;2023-05-29T10:23:25;86279.38;;;35.29;18.67
80682;BME280;70045;40.200;44.582;2023-05-29T10:25:52;86288.16;;;34.36;17.95
80682;BME280;70045;40.200;44.582;2023-05-29T10:28:18;86251.00;;;33.69;19.50
80682;BME280;70045;40.200;44.582;2023-05-29T10:31:02;86269.22;;;33.30;18.43
80682;BME280;70045;40.200;44.582;2023-05-29T10:38:45;86269.94;;;31.19;21.58
80682;BME280;70045;40.200;44.582;2023-05-29T10:44:02;86261.09;;;31.76;20.45
80682;BME280;70045;40.200;44.582;2023-05-29T10:49:21;86250.81;;;32.95;18.67
80682;BME280;70045;40.200;44.582;2023-05-29T10:51:50;86259.31;;;33.88;19.15
80682;BME280;70045;40.200;44.582;2023-05-29T10:54:16;86256.03;;;34.38;18.33
80682;BME280;70045;40.200;44.582;2023-05-29T10:56:44;86255.78;;;34.94;17.42
80682;BME280;70045;40.200;44.582;2023-05-29T10:59:17;86263.22;;;35.81;18.06
80682;BME280;70045;40.200;44.582;2023-05-29T11:01:43;86255.06;;;35.71;18.20
80682;BME280;70045;40.200;44.582;2023-05-29T11:06:40;86248.84;;;36.50;16.76
80682;BME280;70045;40.200;44.582;2023-05-29T11:09:05;86246.22;;;35.71;17.86
80682;BME280;70045;40.200;44.582;2023-05-29T11:11:31;86246.94;;;35.89;18.22
80682;BME280;70045;40.200;44.582;2023-05-29T11:14:01;86249.00;;;35.80;16.80
80682;BME280;70045;40.200;44.582;2023-05-29T11:18:56;86240.44;;;35.04;18.20
80682;BME280;70045;40.200;44.582;2023-05-29T11:24:03;86217.22;;;33.43;20.22
80682;BME280;70045;40.200;44.582;2023-05-29T11:26:29;86228.63;;;32.87;20.36
80682;BME280;70045;40.200;44.582;2023-05-29T11:29:04;86197.88;;;32.03;19.93
80682;BME280;70045;40.200;44.582;2023-05-29T11:31:32;86217.09;;;31.71;21.44
80682;BME280;70045;40.200;44.582;2023-05-29T11:34:00;86202.81;;;31.16;21.46
80682;BME280;70045;40.200;44.582;2023-05-29T11:36:26;86205.78;;;30.97;21.63
80682;BME280;70045;40.200;44.582;2023-05-29T11:38:51;86198.31;;;30.46;22.63
80682;BME280;70045;40.200;44.582;2023-05-29T11:41:19;86193.16;;;29.77;22.38
80682;BME280;70045;40.200;44.582;2023-05-29T11:43:56;86203.16;;;29.29;23.82
80682;BME280;70045;40.200;44.582;2023-05-29T11:46:21;86204.16;;;28.78;23.96
80682;BME280;70045;40.200;44.582;2023-05-29T11:48:47;86213.09;;;28.54;24.60
80682;BME280;70045;40.200;44.582;2023-05-29T11:51:13;86205.06;;;28.27;25.54
80682;BME280;70045;40.200;44.582;2023-05-29T11:53:42;86213.06;;;28.27;25.23
80682;BME280;70045;40.200;44.582;2023-05-29T11:56:10;86226.78;;;28.31;24.64
80682;BME280;70045;40.200;44.582;2023-05-29T11:58:37;86224.56;;;28.35;23.72
80682;BME280;70045;40.200;44.582;2023-05-29T12:01:02;86224.66;;;28.43;23.86
80682;BME280;70045;40.200;44.582;2023-05-29T12:03:28;86230.09;;;28.51;24.06
80682;BME280;70045;40.200;44.582;2023-05-29T12:05:56;86220.06;;;28.57;24.18
80682;BME280;70045;40.200;44.582;2023-05-29T12:08:23;86230.75;;;28.70;24.26
80682;BME280;70045;40.200;44.582;2023-05-29T12:10:49;86209.34;;;28.97;23.77
80682;BME280;70045;40.200;44.582;2023-05-29T12:13:15;86217.75;;;29.15;24.19
80682;BME280;70045;40.200;44.582;2023-05-29T12:15:40;86213.66;;;29.00;24.08
80682;BME280;70045;40.200;44.582;2023-05-29T12:18:08;86224.56;;;28.62;24.56
80682;BME280;70045;40.200;44.582;2023-05-29T12:20:34;86230.25;;;28.13;24.99
80682;BME280;70045;40.200;44.582;2023-05-29T12:23:01;86225.78;;;27.56;26.07
80682;BME280;70045;40.200;44.582;2023-05-29T12:25:26;86230.09;;;27.21;26.66
80682;BME280;70045;40.200;44.582;2023-05-29T12:27:55;86227.94;;;27.01;26.11
80682;BME280;70045;40.200;44.582;2023-05-29T12:30:24;86228.97;;;26.98;26.09
80682;BME280;70045;40.200;44.582;2023-05-29T12:32:51;86240.44;;;26.87;26.10
80682;BME280;70045;40.200;44.582;2023-05-29T12:35:17;86239.69;;;26.67;26.67
80682;BME280;70045;40.200;44.582;2023-05-29T12:37:57;86220.50;;;26.31;27.12
80682;BME280;70045;40.200;44.582;2023-05-29T12:40:27;86239.75;;;26.37;26.75
80682;BME280;70045;40.200;44.582;2023-05-29T12:43:01;86238.44;;;26.25;27.70
80682;BME280;70045;40.200;44.582;2023-05-29T12:45:29;86244.94;;;25.99;27.51
80682;BME280;70045;40.200;44.582;2023-05-29T12:53:01;86263.97;;;25.73;29.32
80682;BME280;70045;40.200;44.582;2023-05-29T12:55:28;86277.53;;;25.16;30.99
80682;BME280;70045;40.200;44.582;2023-05-29T12:57:55;86280.44;;;24.54;32.77
80682;BME280;70045;40.200;44.582;2023-05-29T13:00:21;86303.88;;;23.88;35.50
80682;BME280;70045;40.200;44.582;2023-05-29T13:02:50;86319.69;;;23.31;39.64
80682;BME280;70045;40.200;44.582;2023-05-29T13:05:16;86329.81;;;22.79;40.87
80682;BME280;70045;40.200;44.582;2023-05-29T13:07:42;86348.25;;;22.24;43.46
80682;BME280;70045;40.200;44.582;2023-05-29T13:10:08;86353.66;;;21.72;46.26
80682;BME280;70045;40.200;44.582;2023-05-29T13:12:35;86369.97;;;21.03;50.33
80682;BME280;70045;40.200;44.582;2023-05-29T13:15:03;86384.38;;;20.31;54.81
80682;BME280;70045;40.200;44.582;2023-05-29T13:17:29;86396.59;;;19.54;57.58
80682;BME280;70045;40.200;44.582;2023-05-29T13:19:54;86393.41;;;19.20;61.02
80682;BME280;70045;40.200;44.582;2023-05-29T13:22:20;86400.81;;;19.07;61.06
80682;BME280;70045;40.200;44.582;2023-05-29T13:24:45;86403.53;;;18.97;64.12
80682;BME280;70045;40.200;44.582;2023-05-29T13:27:13;86407.66;;;18.89;61.83
80682;BME280;70045;40.200;44.582;2023-05-29T13:29:39;86385.13;;;18.97;60.69